Time;durP1;ratioP1;P1;durP2;ratioP2;P2;SDS_P1;SDS_P2;PMS_P1;PMS_P2;Temp;Humidity;BMP_temperature;BMP_pressure;BME280_temperature;BME280_humidity;BME280_pressure;Samples;Min_cycle;Max_cycle;Signal;HPM_P1;HPM_P2
2022/02/22 00:00:15;;;;;;;2.62;1.20;;;;;;;3.87;71.34;99164.84;1739929;81;21404;-73
2022/02/22 00:02:42;;;;;;;3.33;1.90;;;;;;;3.89;71.40;99174.19;1753542;81;20925;-73
2022/02/22 00:05:10;;;;;;;4.40;1.15;;;;;;;3.91;71.39;99178.00;1739858;81;20976;-73
2022/02/22 00:07:36;;;;;;;2.08;1.10;;;;;;;3.91;71.42;99176.72;1736683;81;20968;-73
2022/02/22 00:10:04;;;;;;;4.35;1.82;;;;;;;3.93;71.46;99181.39;1703022;83;20960;-73
2022/02/22 00:12:30;;;;;;;3.75;1.32;;;;;;;3.94;71.47;99188.20;1723693;83;20936;-73
2022/02/22 00:14:56;;;;;;;3.42;1.30;;;;;;;3.94;71.52;99189.04;1723980;81;20897;-73
2022/02/22 00:17:22;;;;;;;2.35;1.22;;;;;;;3.95;71.49;99192.02;1728603;81;20980;-73
2022/02/22 00:19:48;;;;;;;2.67;1.40;;;;;;;3.96;71.52;99191.58;1723952;83;20870;-73
2022/02/22 00:22:14;;;;;;;5.60;1.47;;;;;;;3.96;71.56;99192.42;1705835;81;20889;-72
2022/02/22 00:24:40;;;;;;;5.23;1.37;;;;;;;3.97;71.59;99189.44;1728792;81;20881;-72
2022/02/22 00:27:06;;;;;;;4.55;1.52;;;;;;;3.97;71.59;99194.55;1723829;83;20952;-73
2022/02/22 00:29:33;;;;;;;3.35;1.25;;;;;;;3.97;71.63;99200.94;1724103;83;21408;-73
2022/02/22 00:31:59;;;;;;;3.65;1.27;;;;;;;3.97;71.71;99202.22;1724138;81;20921;-72
2022/02/22 00:34:25;;;;;;;3.08;1.37;;;;;;;4.00;71.69;99200.91;1723762;83;21394;-72
2022/02/22 00:36:51;;;;;;;3.60;1.37;;;;;;;4.02;71.76;99206.00;1724534;81;20976;-73
2022/02/22 00:39:18;;;;;;;11.43;2.02;;;;;;;4.03;71.79;99214.94;1724091;81;20960;-72
2022/02/22 00:41:44;;;;;;;3.20;1.20;;;;;;;4.04;71.82;99215.35;1723829;81;20957;-72
2022/02/22 00:44:10;;;;;;;4.87;1.32;;;;;;;4.05;71.83;99212.36;1737159;81;20889;-72
2022/02/22 00:46:36;;;;;;;3.37;1.50;;;;;;;4.05;71.84;99227.27;1724230;81;20913;-72
2022/02/22 00:49:02;;;;;;;4.85;1.67;;;;;;;4.06;71.88;99224.28;1721529;81;20968;-72
2022/02/22 00:51:29;;;;;;;3.52;1.07;;;;;;;4.07;71.95;99231.09;1732879;81;20928;-73
2022/02/22 00:53:55;;;;;;;2.25;1.20;;;;;;;4.08;71.96;99230.23;1727017;81;21394;-72
2022/02/22 00:56:21;;;;;;;4.60;1.40;;;;;;;4.09;72.01;99238.31;1724004;81;20953;-72
2022/02/22 00:58:47;;;;;;;7.22;1.80;;;;;;;4.09;71.99;99244.28;1723699;81;20952;-72
2022/02/22 01:01:17;;;;;;;6.45;1.40;;;;;;;4.08;72.00;99242.59;1736861;81;21023;-72
2022/02/22 01:03:44;;;;;;;7.00;1.65;;;;;;;4.09;72.04;99249.83;1723833;81;20921;-72
2022/02/22 01:06:11;;;;;;;6.58;1.60;;;;;;;4.09;72.08;99258.34;1726372;81;21440;-72
2022/02/22 01:08:37;;;;;;;4.47;1.05;;;;;;;4.10;72.11;99251.52;1750533;81;20964;-72
2022/02/22 01:11:03;;;;;;;5.28;1.35;;;;;;;4.11;72.15;99260.89;1740593;81;20949;-72
2022/02/22 01:13:30;;;;;;;6.22;1.67;;;;;;;4.12;72.17;99249.79;1723994;81;20976;-72
2022/02/22 01:15:56;;;;;;;3.70;1.27;;;;;;;4.11;72.23;99248.94;1732051;81;20917;-72
2022/02/22 01:18:23;;;;;;;3.50;1.52;;;;;;;4.12;72.26;99266.41;1753953;81;20960;-72
2022/02/22 01:20:50;;;;;;;9.40;1.72;;;;;;;4.12;72.30;99266.41;1727996;81;21460;-72
2022/02/22 01:23:16;;;;;;;6.15;1.45;;;;;;;4.12;72.29;99258.74;1727237;81;20869;-72
2022/02/22 01:25:43;;;;;;;3.47;1.55;;;;;;;4.12;72.24;99263.86;1731129;81;25144;-71
2022/02/22 01:31:49;;;;;;;5.50;1.60;;;;;;;4.06;72.32;99264.77;1751835;80;20937;-72
2022/02/22 01:34:15;;;;;;;5.62;1.25;;;;;;;4.03;72.41;99277.59;1738656;81;20936;-72
2022/02/22 01:36:41;;;;;;;7.53;1.53;;;;;;;4.01;72.46;99281.03;1748489;82;20956;-72
2022/02/22 01:39:07;;;;;;;7.50;1.75;;;;;;;4.01;72.47;99278.48;1749478;81;20932;-72
2022/02/22 01:41:40;;;;;;;5.27;1.80;;;;;;;3.99;72.55;99279.77;1729112;81;20945;-72
2022/02/22 01:44:07;;;;;;;7.40;1.67;;;;;;;3.97;72.55;99291.73;1725923;81;21262;-72
2022/02/22 01:46:36;;;;;;;3.77;1.57;;;;;;;3.96;72.59;99288.75;1737802;81;20937;-72
2022/02/22 01:49:03;;;;;;;8.65;1.80;;;;;;;3.95;72.66;99298.56;1714588;81;20886;-72
2022/02/22 01:51:29;;;;;;;;;;;;;;;3.92;72.74;99294.33;1750843;81;20960;-72
2022/02/22 01:53:56;;;;;;;7.53;2.05;;;;;;;3.90;72.88;99299.89;1723954;81;20148;-72
2022/02/22 01:56:24;;;;;;;8.85;2.20;;;;;;;3.89;72.88;99309.70;1723826;81;20968;-72
2022/02/22 01:58:51;;;;;;;3.52;1.50;;;;;;;3.90;72.83;99310.55;1708981;81;20897;-72
2022/02/22 02:01:18;;;;;;;4.25;1.40;;;;;;;3.89;72.83;99313.54;1732627;81;20945;-72
2022/02/22 02:03:45;;;;;;;6.40;1.80;;;;;;;3.89;72.89;99323.77;1723651;83;20953;-72
2022/02/22 02:06:12;;;;;;;4.65;2.52;;;;;;;3.91;72.91;99331.42;1728446;81;20936;-72
2022/02/22 02:08:39;;;;;;;4.65;1.50;;;;;;;3.90;73.00;99336.97;1749034;81;20933;-72
2022/02/22 02:11:11;;;;;;;4.13;1.63;;;;;;;3.93;73.00;99339.93;1723831;83;21574;-72
2022/02/22 02:13:37;;;;;;;4.55;1.87;;;;;;;3.93;73.04;99348.88;1723516;83;20873;-72
2022/02/22 02:16:05;;;;;;;7.50;2.70;;;;;;;3.94;72.98;99353.98;1735521;81;20947;-72
2022/02/22 02:18:31;;;;;;;5.65;2.05;;;;;;;3.97;73.12;99357.79;1753587;80;20917;-72
2022/02/22 02:20:59;;;;;;;8.15;2.00;;;;;;;3.99;73.04;99356.50;1753687;81;20945;-72
2022/02/22 02:23:26;;;;;;;4.28;1.57;;;;;;;4.02;73.33;99358.18;1753502;81;21488;-72
2022/02/22 02:25:51;;;;;;;7.85;2.27;;;;;;;4.03;73.09;99356.88;1752690;81;20956;-72
2022/02/22 02:28:17;;;;;;;6.10;1.90;;;;;;;4.06;73.22;99363.25;1729064;81;20849;-72
2022/02/22 02:30:43;;;;;;;6.00;1.53;;;;;;;4.07;73.19;99370.49;1723778;81;20893;-72
2022/02/22 02:33:09;;;;;;;6.35;2.12;;;;;;;4.09;73.26;99382.41;1737351;81;20905;-72
2022/02/22 02:35:36;;;;;;;5.33;1.92;;;;;;;4.11;73.29;99373.01;1725843;81;20885;-72
2022/02/22 02:38:01;;;;;;;8.08;2.05;;;;;;;4.12;73.29;99382.38;1725725;81;20948;-72
2022/02/22 02:40:28;;;;;;;9.65;2.37;;;;;;;4.14;73.34;99368.29;1724311;81;21020;-72
2022/02/22 02:42:54;;;;;;;5.67;2.40;;;;;;;4.15;73.31;99388.74;1732162;81;22211;-72
2022/02/22 02:45:22;;;;;;;8.20;2.00;;;;;;;4.17;73.42;99388.69;1740615;81;20885;-72
2022/02/22 02:47:49;;;;;;;4.28;2.10;;;;;;;4.18;73.40;99392.52;1693230;84;21514;-72
2022/02/22 02:50:15;;;;;;;5.20;2.47;;;;;;;4.19;73.39;99391.66;1663922;86;21526;-72
2022/02/22 02:52:41;;;;;;;10.43;2.17;;;;;;;4.18;73.47;99393.80;1678790;83;21137;-72
2022/02/22 02:55:08;;;;;;;6.17;2.50;;;;;;;4.19;73.40;99399.33;1693464;84;20885;-72
2022/02/22 02:57:36;;;;;;;3.50;1.70;;;;;;;4.21;73.47;99396.76;1663621;86;21122;-72
2022/02/22 03:00:05;;;;;;;4.17;1.65;;;;;;;4.23;73.50;99401.42;1676865;84;20925;-72
2022/02/22 03:02:31;;;;;;;7.03;1.75;;;;;;;4.23;73.51;99402.70;1675253;84;20925;-72
2022/02/22 03:04:59;;;;;;;4.92;1.65;;;;;;;4.24;73.52;99412.08;1666161;86;20909;-72
2022/02/22 03:07:27;;;;;;;6.28;1.55;;;;;;;4.24;73.69;99415.48;1674250;84;20897;-71
2022/02/22 03:09:53;;;;;;;3.20;1.33;;;;;;;4.24;73.64;99412.92;1694399;84;20953;-72
2022/02/22 03:12:19;;;;;;;10.47;1.80;;;;;;;4.26;73.71;99425.27;1694254;84;20873;-72
2022/02/22 03:14:48;;;;;;;9.55;2.05;;;;;;;4.26;73.74;99429.55;1673845;83;20941;-72
2022/02/22 03:17:13;;;;;;;5.65;1.67;;;;;;;4.27;73.68;99435.92;1666450;84;20935;-72
2022/02/22 03:19:39;;;;;;;6.17;1.77;;;;;;;4.29;73.71;99442.30;1695830;84;20917;-72
2022/02/22 03:22:05;;;;;;;5.13;1.73;;;;;;;4.30;73.78;99445.28;1676037;84;20953;-72
2022/02/22 03:24:32;;;;;;;5.37;1.33;;;;;;;4.30;73.80;99455.09;1666377;84;20866;-72
2022/02/22 03:26:58;;;;;;;5.97;1.70;;;;;;;4.32;73.80;99455.92;1668689;84;26554;-72
2022/02/22 03:29:23;;;;;;;3.63;1.57;;;;;;;4.33;73.83;99464.45;1666417;84;20969;-72
2022/02/22 03:31:49;;;;;;;8.10;1.23;;;;;;;4.35;73.82;99473.39;1666428;86;21531;-71
2022/02/22 03:34:15;;;;;;;10.33;2.43;;;;;;;4.36;73.89;99478.92;1666485;84;20878;-72
2022/02/22 03:36:43;;;;;;;6.85;1.50;;;;;;;4.37;73.90;99475.50;1694438;83;20949;-72
2022/02/22 03:39:09;;;;;;;4.53;1.40;;;;;;;4.38;73.92;99482.32;1666367;85;20921;-72
2022/02/22 03:41:35;;;;;;;7.40;1.00;;;;;;;4.38;73.99;99485.73;1694516;84;20930;-72
2022/02/22 03:44:02;;;;;;;6.53;1.42;;;;;;;4.40;73.97;99498.08;1670971;83;20969;-75
2022/02/22 03:46:34;;;;;;;8.68;1.70;;;;;;;4.42;74.03;99501.91;1694999;83;20892;-75
2022/02/22 03:49:00;;;;;;;2.90;1.20;;;;;;;4.44;74.06;99502.73;1694877;84;21557;-75
2022/02/22 03:51:26;;;;;;;7.30;1.50;;;;;;;4.45;74.07;99515.95;1700489;83;20882;-75
2022/02/22 03:53:52;;;;;;;5.62;1.45;;;;;;;4.46;74.08;99515.09;1694551;84;20933;-75
2022/02/22 03:56:18;;;;;;;6.25;1.12;;;;;;;4.46;74.15;99522.77;1680054;84;20957;-75
2022/02/22 03:58:50;;;;;;;5.12;1.55;;;;;;;4.46;74.20;99524.90;1690405;83;22168;-75
2022/02/22 04:01:16;;;;;;;7.72;1.60;;;;;;;4.45;74.21;99523.20;1706553;82;20895;-75
2022/02/22 04:03:42;;;;;;;4.80;1.13;;;;;;;4.46;74.26;99538.13;1701330;83;20922;-75
2022/02/22 04:06:08;;;;;;;6.23;1.10;;;;;;;4.46;74.27;99540.69;1721538;80;20961;-75
2022/02/22 04:08:34;;;;;;;7.17;1.93;;;;;;;4.46;74.36;99548.36;1730555;80;20870;-74
2022/02/22 04:11:00;;;;;;;7.40;1.80;;;;;;;4.46;74.38;99547.94;1726220;82;20945;-74
2022/02/22 04:13:26;;;;;;;7.77;1.50;;;;;;;4.46;74.35;99546.66;1748849;81;20866;-74
2022/02/22 04:15:52;;;;;;;8.27;2.27;;;;;;;4.45;74.43;99551.78;1737433;81;20854;-75
2022/02/22 04:18:18;;;;;;;5.37;1.57;;;;;;;4.46;74.48;99556.05;1727141;82;21749;-75
2022/02/22 04:20:45;;;;;;;;;;;;;;;4.45;74.40;99559.03;1730253;82;21177;-74
2022/02/22 04:23:10;;;;;;;7.28;1.22;;;;;;;4.42;74.85;99567.17;1745037;81;20235;-74
2022/02/22 04:25:36;;;;;;;4.10;1.13;;;;;;;4.41;74.68;99570.16;1728903;82;20890;-74
2022/02/22 04:28:04;;;;;;;10.68;1.60;;;;;;;4.40;74.54;99588.08;1722146;82;21607;-74
2022/02/22 04:30:30;;;;;;;7.60;1.30;;;;;;;4.39;74.66;99583.83;1716805;82;22098;-74
2022/02/22 04:32:56;;;;;;;10.93;1.63;;;;;;;4.37;74.69;99596.63;1719842;82;21160;-75
2022/02/22 04:35:23;;;;;;;3.87;0.97;;;;;;;4.37;74.77;99611.98;1722614;81;21855;-75
2022/02/22 04:37:49;;;;;;;6.20;1.42;;;;;;;4.37;74.70;99621.38;1749022;80;21354;-75
2022/02/22 04:40:15;;;;;;;5.93;1.60;;;;;;;4.33;74.72;99624.38;1752407;80;21630;-75
2022/02/22 04:42:41;;;;;;;5.43;1.33;;;;;;;4.30;74.73;99632.08;1732469;80;20928;-74
2022/02/22 04:45:10;;;;;;;5.22;1.20;;;;;;;4.23;74.78;99625.30;1755621;80;21514;-74
2022/02/22 04:47:36;;;;;;;6.10;1.20;;;;;;;4.17;74.88;99632.58;1752978;80;21780;-74
2022/02/22 04:50:05;;;;;;;6.25;1.10;;;;;;;4.13;74.91;99630.08;1752772;80;21848;-74
2022/02/22 04:52:31;;;;;;;4.33;1.40;;;;;;;4.08;74.91;99633.95;1750074;80;21844;-74
2022/02/22 04:54:59;;;;;;;6.12;1.77;;;;;;;4.04;75.00;99637.38;1745843;80;21408;-74
2022/02/22 04:57:25;;;;;;;5.37;1.62;;;;;;;4.01;75.08;99642.94;1727999;81;21416;-75
2022/02/22 04:59:51;;;;;;;;;;;;;;;3.99;75.05;99650.19;1671343;84;21941;-75
2022/02/22 05:02:17;;;;;;;4.87;1.23;;;;;;;3.97;75.45;99649.34;1682167;83;20181;-74
2022/02/22 05:04:43;;;;;;;3.92;1.12;;;;;;;3.96;75.18;99652.77;1681852;84;21395;-74
2022/02/22 05:07:09;;;;;;;4.50;1.00;;;;;;;3.95;75.19;99660.02;1689903;83;21429;-75
2022/02/22 05:09:37;;;;;;;5.42;1.10;;;;;;;3.94;75.28;99660.87;1674793;84;21660;-75
2022/02/22 05:12:04;;;;;;;3.98;0.93;;;;;;;3.94;75.23;99665.13;1682077;84;20969;-75
2022/02/22 05:14:30;;;;;;;;;;;;;;;3.94;75.32;99667.69;1673434;84;20865;-75
2022/02/22 05:16:56;;;;;;;7.67;1.20;;;;;;;3.95;75.68;99671.52;1672296;84;20187;-75
2022/02/22 05:19:22;;;;;;;7.05;1.27;;;;;;;3.96;75.39;99674.50;1676094;83;21749;-74
2022/02/22 05:21:48;;;;;;;6.47;1.40;;;;;;;3.96;75.33;99679.61;1663910;84;21032;-74
2022/02/22 05:24:13;;;;;;;5.77;1.20;;;;;;;3.97;75.40;99686.44;1672558;84;20929;-74
2022/02/22 05:26:44;;;;;;;4.80;1.22;;;;;;;3.98;75.47;99683.02;1650149;84;21647;-76
2022/02/22 05:29:10;;;;;;;8.05;1.25;;;;;;;4.00;75.51;99685.57;1688508;83;21079;-76
2022/02/22 05:31:36;;;;;;;6.00;1.30;;;;;;;4.01;75.56;99680.87;1685725;84;21721;-76
2022/02/22 05:34:02;;;;;;;7.80;1.37;;;;;;;4.04;75.59;99695.36;1682204;84;21952;-76
2022/02/22 05:36:28;;;;;;;7.20;1.25;;;;;;;4.06;75.47;99691.09;1682820;84;21508;-76
2022/02/22 05:39:03;;;;;;;7.92;1.20;;;;;;;4.08;75.59;99691.93;1672550;84;21532;-76
2022/02/22 05:41:30;;;;;;;3.67;1.12;;;;;;;4.10;75.63;99705.56;1688617;84;21051;-76
2022/02/22 05:43:56;;;;;;;6.70;1.67;;;;;;;4.11;75.61;99706.84;1684674;84;21071;-75
2022/02/22 05:46:23;;;;;;;3.05;1.52;;;;;;;4.13;75.67;99711.52;1676270;84;21641;-76
2022/02/22 05:48:49;;;;;;;7.47;1.47;;;;;;;4.15;75.65;99720.04;1725590;81;20921;-76
2022/02/22 05:51:17;;;;;;;6.53;1.27;;;;;;;4.15;75.63;99723.88;1735625;81;21479;-76
2022/02/22 05:53:44;;;;;;;4.97;1.40;;;;;;;4.15;75.59;99725.58;1729985;81;21488;-76
2022/02/22 05:56:10;;;;;;;8.13;2.15;;;;;;;4.14;75.66;99732.41;1731831;80;21529;-75
2022/02/22 05:58:37;;;;;;;3.35;1.05;;;;;;;4.13;75.68;99727.30;1752359;80;21052;-76
2022/02/22 06:01:03;;;;;;;7.72;1.50;;;;;;;4.12;75.63;99737.11;1725051;81;21727;-75
2022/02/22 06:03:29;;;;;;;3.83;1.20;;;;;;;4.10;75.67;99740.10;1748018;80;21523;-76
2022/02/22 06:05:57;;;;;;;7.55;1.50;;;;;;;4.07;75.75;99740.97;1745368;80;20973;-76
2022/02/22 06:08:25;;;;;;;2.93;1.03;;;;;;;4.07;75.78;99760.15;1743763;81;21039;-75
2022/02/22 06:10:51;;;;;;;6.35;0.93;;;;;;;4.09;75.81;99769.09;1668998;84;21113;-75
2022/02/22 06:13:18;;;;;;;7.35;1.27;;;;;;;4.10;75.87;99771.65;1676383;84;21125;-75
2022/02/22 06:15:44;;;;;;;6.60;1.52;;;;;;;4.11;75.92;99779.75;1672793;84;21052;-75
2022/02/22 06:18:10;;;;;;;9.35;1.30;;;;;;;4.13;75.89;99783.58;1674628;84;21123;-75
2022/02/22 06:20:36;;;;;;;7.63;1.60;;;;;;;4.14;75.99;99783.58;1682619;84;21087;-75
2022/02/22 06:23:03;;;;;;;4.20;1.15;;;;;;;4.16;76.02;99783.57;1671606;83;21277;-75
2022/02/22 06:25:30;;;;;;;7.47;1.40;;;;;;;4.18;76.06;99783.95;1730987;81;21091;-75
2022/02/22 06:27:58;;;;;;;6.25;1.42;;;;;;;4.21;76.04;99790.77;1733325;81;21575;-75
2022/02/22 06:30:26;;;;;;;5.12;1.17;;;;;;;4.24;76.12;99799.72;1723984;81;21107;-75
2022/02/22 06:32:54;;;;;;;6.40;1.67;;;;;;;4.27;76.15;99793.31;1744278;80;20956;-75
2022/02/22 06:35:22;;;;;;;8.13;1.32;;;;;;;4.30;76.07;99796.70;1733777;81;21080;-75
2022/02/22 06:37:50;;;;;;;8.93;2.02;;;;;;;4.31;76.07;99795.85;1713533;81;21549;-75
2022/02/22 06:40:16;;;;;;;8.20;1.50;;;;;;;4.35;76.21;99795.41;1736852;80;21392;-75
2022/02/22 06:42:45;;;;;;;12.07;2.95;;;;;;;4.37;76.15;99796.26;1732257;80;20882;-76
2022/02/22 06:45:12;;;;;;;7.90;2.75;;;;;;;4.40;76.20;99804.35;1746096;80;21413;-75
2022/02/22 06:47:39;;;;;;;;;;;;;;;4.43;76.21;99818.42;1745204;80;21006;-75
2022/02/22 06:50:08;;;;;;;4.80;1.85;;;;;;;4.47;76.43;99809.87;1742873;81;20133;-75
2022/02/22 06:52:35;;;;;;;5.03;1.57;;;;;;;4.48;76.21;99813.70;1733942;81;20953;-75
2022/02/22 06:55:01;;;;;;;8.43;1.72;;;;;;;4.51;76.30;99825.64;1730436;81;25213;-75
2022/02/22 06:57:27;;;;;;;10.65;1.82;;;;;;;4.54;76.35;99829.03;1738146;80;20941;-76
2022/02/22 06:59:53;;;;;;;6.70;1.55;;;;;;;4.59;76.38;99837.55;1728461;81;20952;-76
2022/02/22 07:02:20;;;;;;;5.77;1.67;;;;;;;4.65;76.41;99846.48;1738519;80;21698;-76
2022/02/22 07:04:45;;;;;;;6.25;1.62;;;;;;;4.73;76.43;99845.57;1749398;81;21048;-76
2022/02/22 07:07:13;;;;;;;5.97;1.52;;;;;;;4.77;76.41;99857.50;1743693;81;21064;-76
2022/02/22 07:09:39;;;;;;;7.70;2.10;;;;;;;4.80;76.42;99853.22;1734057;81;20933;-76
2022/02/22 07:12:06;;;;;;;13.23;2.27;;;;;;;4.82;76.41;99862.17;1722059;81;20901;-76
2022/02/22 07:14:32;;;;;;;;;;;;;;;4.82;76.48;99873.27;1729398;81;21052;-76
2022/02/22 07:16:58;;;;;;;9.98;2.60;;;;;;;4.85;76.70;99872.41;1699895;83;20199;-76
2022/02/22 07:19:24;;;;;;;9.83;2.15;;;;;;;4.89;76.61;99872.38;1680485;84;20983;-75
2022/02/22 07:21:52;;;;;;;14.80;2.80;;;;;;;4.93;76.53;99874.08;1650865;85;21119;-75
2022/02/22 07:24:18;;;;;;;8.47;2.53;;;;;;;4.95;76.53;99876.20;1684847;83;21649;-76
2022/02/22 07:26:44;;;;;;;11.75;2.35;;;;;;;4.97;76.58;99882.16;1678854;84;21079;-76
2022/02/22 07:29:10;;;;;;;9.30;2.20;;;;;;;5.01;76.61;99877.88;1689521;84;21100;-75
2022/02/22 07:31:36;;;;;;;12.03;2.50;;;;;;;5.04;76.59;99885.98;1682703;84;20912;-76
2022/02/22 07:34:02;;;;;;;6.67;2.33;;;;;;;5.05;76.60;99883.41;1687781;84;20992;-75
2022/02/22 07:36:28;;;;;;;10.23;2.87;;;;;;;5.06;76.62;99884.27;1683251;83;21069;-76
2022/02/22 07:38:54;;;;;;;9.50;2.23;;;;;;;5.08;76.63;99888.52;1712590;81;21012;-75
2022/02/22 07:41:22;;;;;;;10.65;2.42;;;;;;;5.11;76.71;99891.06;1701818;83;21543;-76
2022/02/22 07:43:51;;;;;;;8.03;2.30;;;;;;;5.13;76.66;99895.75;1711383;83;21318;-76
2022/02/22 07:46:18;;;;;;;11.85;4.00;;;;;;;5.16;76.68;99901.29;1722346;81;21072;-76
2022/02/22 07:48:48;;;;;;;7.47;2.50;;;;;;;5.18;76.76;99905.55;1711078;81;21057;-76
2022/02/22 07:51:16;;;;;;;6.92;1.90;;;;;;;5.20;76.74;99909.38;1713502;81;20981;-76
2022/02/22 07:53:47;;;;;;;6.92;2.50;;;;;;;5.21;76.75;99917.46;1719909;81;21391;-76
2022/02/22 07:56:16;;;;;;;10.18;2.25;;;;;;;5.21;76.67;99927.28;1681402;84;21341;-76
2022/02/22 07:58:42;;;;;;;13.58;2.33;;;;;;;5.19;76.73;99934.16;1746982;80;21036;-76
2022/02/22 08:01:11;;;;;;;9.90;2.12;;;;;;;5.15;76.63;99942.72;1733486;80;21524;-76
2022/02/22 08:03:38;;;;;;;11.97;2.37;;;;;;;5.15;76.68;99945.72;1747766;81;21060;-76
2022/02/22 08:06:04;;;;;;;12.70;2.00;;;;;;;5.12;76.66;99951.70;1743394;81;22520;-76
2022/02/22 08:08:30;;;;;;;10.55;2.30;;;;;;;5.11;76.73;99951.28;1741603;81;21131;-76
2022/02/22 08:10:56;;;;;;;9.27;2.80;;;;;;;5.09;76.71;99954.70;1722940;81;20913;-75
2022/02/22 08:13:23;;;;;;;13.68;2.67;;;;;;;5.07;76.70;99964.97;1729155;81;21666;-76
2022/02/22 08:15:49;;;;;;;9.80;1.92;;;;;;;5.06;76.72;99967.53;1738899;80;21103;-76
2022/02/22 08:18:15;;;;;;;12.18;2.52;;;;;;;5.06;76.77;99984.19;1733785;80;21119;-76
2022/02/22 08:20:41;;;;;;;22.40;2.90;;;;;;;5.06;76.70;99984.19;1741428;80;20877;-76
2022/02/22 08:23:08;;;;;;;15.70;2.55;;;;;;;5.03;76.74;99988.89;1732505;80;21071;-76
2022/02/22 08:25:34;;;;;;;12.88;2.87;;;;;;;5.03;76.71;100000.86;1677865;84;20885;-76
2022/02/22 08:28:08;;;;;;;16.23;2.73;;;;;;;5.04;76.74;100008.97;1731433;81;21127;-76
2022/02/22 08:30:36;;;;;;;15.18;2.45;;;;;;;5.05;76.69;99996.58;1723398;81;21027;-75
2022/02/22 08:33:07;;;;;;;12.73;2.47;;;;;;;5.06;76.72;100013.66;1733359;81;21100;-75
2022/02/22 08:35:35;;;;;;;15.60;2.47;;;;;;;5.06;76.71;100013.66;1741162;80;21056;-75
2022/02/22 08:38:01;;;;;;;10.95;2.42;;;;;;;5.06;76.70;100016.22;1733710;81;20901;-75
2022/02/22 08:40:28;;;;;;;12.85;2.85;;;;;;;5.08;76.74;100017.06;1733300;81;20961;-75
2022/02/22 08:42:54;;;;;;;8.28;2.20;;;;;;;5.09;76.76;100024.75;1738007;80;20952;-76
2022/02/22 08:45:21;;;;;;;16.00;2.80;;;;;;;5.10;76.74;100016.20;1737818;81;21654;-76
2022/02/22 08:47:47;;;;;;;13.35;2.40;;;;;;;5.11;76.72;100033.28;1673806;84;20909;-76
2022/02/22 08:50:16;;;;;;;9.83;1.98;;;;;;;5.11;76.74;100024.75;1673885;83;20941;-76
2022/02/22 08:52:42;;;;;;;11.77;2.03;;;;;;;5.12;76.75;100030.30;1682358;83;20983;-76
2022/02/22 08:55:08;;;;;;;11.90;1.93;;;;;;;5.11;76.75;100038.41;1696841;82;21827;-76
2022/02/22 08:57:35;;;;;;;11.73;2.30;;;;;;;5.10;76.80;100045.67;1676557;84;20977;-76
2022/02/22 09:00:01;;;;;;;8.38;2.47;;;;;;;5.09;76.85;100051.66;1740590;81;20917;-76
2022/02/22 09:02:27;;;;;;;10.72;2.35;;;;;;;5.09;76.87;100052.94;1687484;83;28012;-76
2022/02/22 09:04:53;;;;;;;10.88;2.05;;;;;;;5.07;76.85;100070.02;1693214;83;20885;-76
2022/02/22 09:07:19;;;;;;;3.73;1.37;;;;;;;5.08;76.93;100065.75;1681931;83;21749;-76
2022/02/22 09:09:45;;;;;;;7.62;1.40;;;;;;;4.99;76.89;100092.25;1685016;84;20916;-76
2022/02/22 09:12:11;;;;;;;3.57;1.10;;;;;;;4.85;76.82;100105.07;1673572;83;20924;-76
2022/02/22 09:14:37;;;;;;;3.50;0.90;;;;;;;4.72;76.91;100113.61;1678393;83;22654;-76
2022/02/22 09:17:04;;;;;;;2.27;1.10;;;;;;;4.53;76.95;100121.75;1675048;83;21480;-76
2022/02/22 09:19:30;;;;;;;2.58;1.25;;;;;;;4.41;77.10;100119.60;1684987;83;20909;-76
2022/02/22 09:21:56;;;;;;;1.83;1.10;;;;;;;4.28;77.07;100129.83;1678888;84;20965;-76
2022/02/22 09:24:22;;;;;;;4.97;1.10;;;;;;;4.21;77.15;100134.50;1670713;84;20984;-76
2022/02/22 09:26:48;;;;;;;3.75;1.62;;;;;;;4.14;77.10;100131.53;1683409;83;21314;-76
2022/02/22 09:29:14;;;;;;;5.67;3.90;;;;;;;4.08;77.10;100143.45;1691933;83;21116;-76
2022/02/22 09:31:40;;;;;;;2.90;1.60;;;;;;;4.03;77.32;100147.28;1684775;83;21209;-76
2022/02/22 09:34:06;;;;;;;3.53;1.17;;;;;;;4.05;77.37;100158.37;1689525;84;20861;-76
2022/02/22 09:36:32;;;;;;;4.35;1.05;;;;;;;4.05;77.25;100156.23;1728103;81;21100;-76
2022/02/22 09:38:58;;;;;;;3.27;0.90;;;;;;;4.04;77.33;100156.66;1725656;81;21548;-76
2022/02/22 09:41:24;;;;;;;7.25;2.62;;;;;;;4.04;77.30;100162.20;1735782;80;21059;-76
2022/02/22 09:43:50;;;;;;;3.67;1.30;;;;;;;4.10;77.44;100160.94;1727507;80;21614;-76
2022/02/22 09:46:18;;;;;;;3.05;1.20;;;;;;;4.16;77.43;100169.45;1619825;81;5000824;-76
2022/02/22 09:48:44;;;;;;;3.92;1.15;;;;;;;4.20;77.43;100173.73;1619584;88;21271;-76
2022/02/22 09:51:10;;;;;;;2.92;0.93;;;;;;;4.22;77.32;100161.80;1606329;88;21108;-76
2022/02/22 09:53:37;;;;;;;5.67;2.50;;;;;;;4.24;77.32;100175.87;1593384;88;20906;-76
2022/02/22 09:56:05;;;;;;;12.10;9.70;;;;;;;4.27;77.42;100175.88;1618768;88;21141;-76
2022/02/22 09:58:32;;;;;;;3.52;1.85;;;;;;;4.33;77.48;100181.88;1619651;88;21119;-76
2022/02/22 10:01:01;;;;;;;5.30;1.90;;;;;;;4.41;77.50;100188.30;1619138;88;21063;-76
2022/02/22 10:03:28;;;;;;;6.12;1.12;;;;;;;4.52;77.59;100195.57;1616551;88;21051;-76
2022/02/22 10:05:58;;;;;;;5.70;1.62;;;;;;;4.63;77.50;100194.31;1616539;88;21150;-76
2022/02/22 10:08:31;;;;;;;5.12;2.55;;;;;;;4.72;77.51;100201.97;1611398;88;21082;-76
2022/02/22 10:11:05;;;;;;;4.92;1.50;;;;;;;4.78;77.52;100212.22;1602410;88;21632;-76
2022/02/22 10:13:33;;;;;;;3.45;1.15;;;;;;;4.82;77.45;100211.80;1619142;88;21432;-76
2022/02/22 10:16:01;;;;;;;2.25;1.22;;;;;;;4.86;77.53;100201.98;1619346;88;20957;-76
2022/02/22 10:18:27;;;;;;;7.33;1.27;;;;;;;4.92;77.57;100204.13;1607825;88;20987;-76
2022/02/22 10:20:54;;;;;;;3.22;1.20;;;;;;;5.02;77.57;100213.95;1598682;88;21126;-76
2022/02/22 10:23:31;;;;;;;2.80;1.12;;;;;;;5.05;77.43;100220.36;1617074;88;21047;-76
2022/02/22 10:26:00;;;;;;;4.97;1.25;;;;;;;5.08;77.48;100227.19;1612038;88;21429;-76
2022/02/22 10:28:27;;;;;;;4.33;1.00;;;;;;;5.05;77.29;100229.75;1615210;88;21768;-76
2022/02/22 10:30:54;;;;;;;3.17;1.05;;;;;;;5.01;77.31;100230.60;1618946;88;21404;-76
2022/02/22 10:33:28;;;;;;;;;;;;;;;4.97;77.29;100243.41;1621674;88;21612;-76
2022/02/22 10:36:04;;;;;;;2.45;0.95;;;;;;;4.93;77.28;100243.41;1620458;86;20170;-76
2022/02/22 10:38:29;;;;;;;4.47;1.12;;;;;;;4.98;77.47;100239.14;1626059;87;20970;-76
2022/02/22 10:41:02;;;;;;;5.25;0.80;;;;;;;5.03;77.35;100235.30;1627434;87;20939;-76
2022/02/22 10:43:33;;;;;;;1.98;0.78;;;;;;;5.07;77.42;100239.58;1627467;87;20906;-76
2022/02/22 10:46:04;;;;;;;4.78;1.20;;;;;;;5.10;77.31;100231.45;1627469;87;20928;-76
2022/02/22 10:48:41;;;;;;;6.33;1.07;;;;;;;5.13;77.34;100255.80;1627683;87;20978;-75
2022/02/22 10:51:16;;;;;;;2.92;0.60;;;;;;;5.18;77.26;100240.43;1621948;88;20998;-76
2022/02/22 10:53:49;;;;;;;3.40;1.00;;;;;;;5.18;77.17;100251.53;1631703;87;20970;-76
2022/02/22 10:56:18;;;;;;;2.95;0.90;;;;;;;5.17;77.21;100255.38;1618855;85;20986;-76
2022/02/22 10:58:46;;;;;;;5.28;0.90;;;;;;;5.15;77.09;100259.22;1651588;85;20949;-76
2022/02/22 11:01:14;;;;;;;;;;;;;;;5.13;76.98;100270.33;1657312;85;20952;-76
2022/02/22 11:03:42;;;;;;;5.00;0.80;;;;;;;5.09;76.85;100267.34;1649854;85;20121;-76
2022/02/22 11:06:10;;;;;;;3.08;0.72;;;;;;;5.11;77.09;100270.75;1657688;85;20943;-76
2022/02/22 11:08:43;;;;;;;2.08;0.60;;;;;;;5.17;77.15;100278.02;1657415;85;21466;-76
2022/02/22 11:11:37;;;;;;;3.40;0.78;;;;;;;5.27;77.15;100276.28;1656596;85;20889;-76
2022/02/22 11:14:31;;;;;;;2.72;1.10;;;;;;;5.35;77.18;100289.95;1648908;85;21601;-76
2022/02/22 11:17:02;;;;;;;2.50;1.27;;;;;;;5.47;77.12;100291.66;1653078;85;21096;-76
2022/02/22 11:19:38;;;;;;;3.62;0.98;;;;;;;5.59;77.23;100299.36;1657018;85;21056;-76
2022/02/22 11:22:26;;;;;;;1.62;0.70;;;;;;;5.71;77.19;100298.06;1641314;85;20952;-76
2022/02/22 11:24:54;;;;;;;1.98;0.78;;;;;;;5.76;76.71;100290.33;1654387;85;21024;-76
2022/02/22 11:27:32;;;;;;;2.35;0.62;;;;;;;5.77;76.52;100311.27;1664400;85;21643;-76
2022/02/22 11:30:09;;;;;;;2.67;0.70;;;;;;;5.68;76.38;100321.15;1663057;84;21097;-76
2022/02/22 11:32:38;;;;;;;1.80;0.90;;;;;;;5.65;76.47;100330.98;1651450;85;21084;-76
2022/02/22 11:35:17;;;;;;;3.75;0.90;;;;;;;5.62;76.53;100331.41;1658661;85;21004;-76
2022/02/22 11:37:46;;;;;;;2.90;0.80;;;;;;;5.66;76.38;100335.69;1645409;85;21122;-76
2022/02/22 11:40:25;;;;;;;2.40;0.90;;;;;;;5.74;76.63;100342.06;1627881;86;21094;-76
2022/02/22 11:43:13;;;;;;;1.95;0.78;;;;;;;5.84;76.65;100347.19;1642287;85;21061;-76